Salisbury, Missouri
Current Conditions -  °F | °C
As of 6:35 PM on Wednesday 17 Dec 2014 (Local Time) from KVER Reporting Station
Overcast Overcast  
Wind Chill: 32°   Ceiling: 10000
Heat Index: 32°   Visibility: 10mi
Dew Point: 25°   Wind: 3mph
Humidity: 74%   Direction: 20°NNE
Pressure: 30.26"   Gusts: NA
Location:  39.42°N, 92.8°W
Report Text: KVER 180035Z AUTO 02003KT 10SM OVC100 00/M04 A3026 RMK AO2 T00001041
Loading
Personal Weather Stations






























Interactive Weather Map New forecast layout! Learn more

10-Day Weather Forecast

Advertisements
Track Severe Weather on mobile